METAR anciennes Noord Nederlandse Zweefvliegclub (NL-0036)

26 septembre 2022

Temps Code Temps Temp. Vue Base cloud Vent METAR/SPECI
02:20
L
10 °C 0 m - 360° 360° 5 kt METAR ETNT 260020Z AUTO 36005KT //// // ////// 10/08 Q1005 ///
01:20
L
10 °C 0 m - 360° 360° 5 kt METAR ETNT 252320Z AUTO 36005KT //// // ////// 10/08 Q1006 ///
00:20
L
10 °C 0 m - 360° 360° 4 kt METAR ETNT 252220Z AUTO 36004KT //// // ////// 10/08 Q1007 ///

25 septembre 2022

Temps Code Temps Temp. Vue Base cloud Vent METAR/SPECI
23:20
L
10 °C 0 m - 360° 360° 5 kt METAR ETNT 252120Z AUTO 36005KT //// // ////// 10/08 Q1009 ///
22:20
L
10 °C 0 m - 360° 360° 4 kt METAR ETNT 252020Z AUTO 36004KT //// // ////// 10/08 Q1009 ///
21:20
L
11 °C 0 m - 360° 360° 5 kt METAR ETNT 251920Z AUTO 36005KT //// // ////// 11/08 Q1010 ///
20:20
L
9 °C 0 m - 360° 360° 3 kt METAR ETNT 251820Z AUTO 36003KT //// // ////// 09/07 Q1010 ///
19:20
L
11 °C 0 m - 360° 360° 3 kt METAR ETNT 251720Z AUTO 36003KT //// // ////// 11/07 Q1011 ///
18:20
L
15 °C 0 m - 360° 360° 5 kt METAR ETNT 251620Z AUTO 36005KT //// // ////// 15/07 Q1011 ///
17:20
L
15 °C 0 m - 010° 010° 6 kt METAR ETNT 251520Z AUTO 01006KT //// // ////// 15/06 Q1011 ///
16:20
L
15 °C 0 m - 010° 010° 6 kt METAR ETNT 251420Z AUTO 01006KT //// // ////// 15/06 Q1012 ///
15:20
L
15 °C 0 m - 010° 010° 6 kt METAR ETNT 251320Z AUTO 01006KT //// // ////// 15/07 Q1012 ///
14:20
L
15 °C 0 m - 010° 010° 6 kt METAR ETNT 251220Z AUTO 01006KT //// // ////// 15/08 Q1013 ///
13:20
L
15 °C 0 m - 020° 020° 9 kt METAR ETNT 251120Z AUTO 02009KT //// // ////// 15/08 Q1013 ///
12:20
L
16 °C 0 m - 020° 020° 8 kt METAR ETNT 251020Z AUTO 02008KT //// // ////// 16/08 Q1013 ///
11:20
L
15 °C 0 m - 030° 030° 10 kt METAR ETNT 250920Z AUTO 03010KT //// // ////// 15/08 Q1013 ///
10:20
L
15 °C 0 m - 050° 050° 6 kt METAR ETNT 250820Z AUTO 05006KT //// // ////// 15/08 Q1013 ///
09:20
L
13 °C 0 m - 060° 060° 4 kt METAR ETNT 250720Z AUTO 06004KT //// // ////// 13/08 Q1013 ///
08:20
L
11 °C 0 m - 080° 080° 3 kt METAR ETNT 250620Z AUTO 08003KT //// // ////// 11/08 Q1013 ///
07:20
L
11 °C 0 m - 090° 090° 3 kt METAR ETNT 250520Z AUTO 09003KT //// // ////// 11/09 Q1013 ///
06:20
L
11 °C 0 m - 090° 090° 4 kt METAR ETNT 250420Z AUTO 09004KT //// // ////// 11/09 Q1013 ///
05:20
L
11 °C 0 m - 100° 100° 4 kt METAR ETNT 250320Z AUTO 10004KT //// // ////// 11/10 Q1013 ///
04:20
L
11 °C 0 m - 100° 100° 4 kt METAR ETNT 250220Z AUTO 10004KT //// // ////// 11/09 Q1013 ///
03:20
L
12 °C 0 m - 110° 110° 4 kt METAR ETNT 250120Z AUTO 11004KT //// // ////// 12/09 Q1014 ///
02:20
L
11 °C 0 m - 120° 120° 3 kt METAR ETNT 250020Z AUTO 12003KT //// // ////// 11/09 Q1014 ///
01:20
L
11 °C 0 m - 120° 120° 3 kt METAR ETNT 242320Z AUTO 12003KT //// // ////// 11/09 Q1013 ///
00:20
L
12 °C 0 m - 130° 130° 5 kt METAR ETNT 242220Z AUTO 13005KT //// // ////// 12/09 Q1014 ///

24 septembre 2022

Temps Code Temps Temp. Vue Base cloud Vent METAR/SPECI
23:20
L
13 °C 0 m - 130° 130° 5 kt METAR ETNT 242120Z AUTO 13005KT //// // ////// 13/10 Q1014 ///
22:20
L
13 °C 0 m - 140° 140° 7 kt METAR ETNT 242020Z AUTO 14007KT //// // ////// 13/10 Q1013 ///
21:20
L
13 °C 0 m - 150° 150° 6 kt METAR ETNT 241920Z AUTO 15006KT //// // ////// 13/10 Q1013 ///
20:20
L
13 °C 0 m - 150° 150° 7 kt METAR ETNT 241820Z AUTO 15007KT //// // ////// 13/11 Q1013 ///
19:20
L
13 °C 0 m - 160° 160° 7 kt METAR ETNT 241720Z AUTO 16007KT //// // ////// 13/12 Q1013 ///
18:20
L
13 °C 0 m - 160° 160° 7 kt METAR ETNT 241620Z AUTO 16007KT //// // ////// 13/11 Q1012 ///
17:20
L
14 °C 0 m - 170° 170° 9 kt METAR ETNT 241520Z AUTO 17009KT //// // ////// 14/12 Q1012 ///
16:20
L
13 °C 0 m - 180° 180° 7 kt METAR ETNT 241420Z AUTO 18007KT //// // ////// 13/13 Q1012 ///
15:20
L
14 °C 0 m - 190° 190° 8 kt METAR ETNT 241320Z AUTO 19008KT //// // ////// 14/12 Q1012 ///
14:20
L
13 °C 0 m - 200° 200° 8 kt METAR ETNT 241220Z AUTO 20008KT //// // ////// 13/13 Q1012 ///
13:20
L
13 °C 0 m - 200° 200° 6 kt METAR ETNT 241120Z AUTO 20006KT //// // ////// 13/13 Q1011 ///
12:20
L
13 °C 0 m - 210° 210° 9 kt METAR ETNT 241020Z AUTO 21009KT //// // ////// 13/13 Q1011 ///
11:20
L
14 °C 0 m - 360° 360° 5 kt METAR ETNT 240920Z AUTO 36005KT //// // ////// 14/13 Q1011 ///
10:20
L
13 °C 0 m - 360° 360° 4 kt METAR ETNT 240820Z AUTO 36004KT //// // ////// 13/13 Q1010 ///
09:20
L
13 °C 0 m - 350° 350° 5 kt METAR ETNT 240720Z AUTO 35005KT //// // ////// 13/13 Q1010 ///
08:20
L
13 °C 0 m - 330° 330° 5 kt METAR ETNT 240620Z AUTO 33005KT //// // ////// 13/13 Q1010 ///
07:20
L
13 °C 0 m - 330° 330° 6 kt METAR ETNT 240520Z AUTO 33006KT //// // ////// 13/13 Q1010 ///
06:20
L
13 °C 0 m - 330° 330° 5 kt METAR ETNT 240420Z AUTO 33005KT //// // ////// 13/12 Q1010 ///
05:20
L
12 °C 0 m - 320° 320° 5 kt METAR ETNT 240320Z AUTO 32005KT //// // ////// 12/12 Q1010 ///
04:20
L
12 °C 0 m - 320° 320° 4 kt METAR ETNT 240220Z AUTO 32004KT //// // ////// 12/12 Q1011 ///
03:20
L
12 °C 0 m - 170° 170° 4 kt METAR ETNT 240120Z AUTO 17004KT //// // ////// 12/12 Q1011 ///
02:20
L
12 °C 0 m - 160° 160° 3 kt METAR ETNT 240020Z AUTO 16003KT //// // ////// 12/12 Q1011 ///
01:20
L
12 °C 0 m - 170° 170° 5 kt METAR ETNT 232320Z AUTO 17005KT //// // ////// 12/12 Q1012 ///
00:20
L
12 °C 0 m - 170° 170° 4 kt METAR ETNT 232220Z AUTO 17004KT //// // ////// 12/12 Q1012 ///

23 septembre 2022

Temps Code Temps Temp. Vue Base cloud Vent METAR/SPECI
23:20
L
12 °C 0 m - Var Var 3 kt METAR ETNT 232120Z AUTO VRB03KT //// // ////// 12/12 Q1012 ///
22:20
L
12 °C 0 m - Var Var 2 kt METAR ETNT 232020Z AUTO VRB02KT //// // ////// 12/12 Q1013 ///
21:20
L
13 °C 0 m - 210° 210° 4 kt METAR ETNT 231920Z AUTO 21004KT //// // ////// 13/12 Q1013 ///
20:20
L
13 °C 0 m - 210° 210° 3 kt METAR ETNT 231820Z AUTO 21003KT //// // ////// 13/11 Q1013 ///
19:20
L
14 °C 0 m - 200° 200° 5 kt METAR ETNT 231720Z AUTO 20005KT //// // ////// 14/10 Q1013 ///
Données plus anciennes

Nous et des tiers suivons ton comportement sur Internet sur notre site Web à l'aide de cookies. Si tu continues, nous supposons que tu acceptes notre politique en matière de cookies. Apprendre plus